ฉงชิ่ง, Chongqing

11:10 PM CST วัน กรกฎาคม 01, 2015 (GMT +0800)
Jiangbei | | Change Station
CLOSE
Current Station
Airport
Location: Chongqing,
Elevation: 1152 ft
Nearby Weather Stations

Elev 1152 ft 29.52 °N, 106.48 °E | Updated 10 minutes ago

Clear
ท้องฟ้าแจ่มใส
77 ฟาเรนไฮน์
Feels Like 77 ฟาเรนไฮน์
N
2
ลม ความผันแปร ลม from ความผันแปร

วันนี้
High -- | Low -- ฟาเรนไฮน์
--% Chance of Precip.
Yesterday
High -- | Low -- ฟาเรนไฮน์
Precip. -- นิ้ว
5:56 AM 7:57 PM
พระจันทร์เต็มดวง, 100% visible
ความดัน 29.65 นิ้ว
ทัศนวิสัย 3.7 ไมล์
เมฆ
อุณหภูมิที่อากาศอาจจับตัวเป็นหยาดน้ำค้าง 72 ฟาเรนไฮน์
ความชื้น 83%
Rainfall 0.00 นิ้ว
Snow Depth Not available.
UV Not available.
Pollen Not available.
Air Quality Not available.
Flu Activity Not available.
METAR ZUCK 011500Z VRB01MPS 6000 NSC 25/22 Q1004 NOSIG

More Conditions Fewer Conditions

ความดัน 29.65 นิ้ว
ทัศนวิสัย 3.7 ไมล์
เมฆ
อุณหภูมิที่อากาศอาจจับตัวเป็นหยาดน้ำค้าง 72 ฟาเรนไฮน์
ความชื้น 83%
Rainfall 0.00 นิ้ว
Snow Depth Not available.
UV Not available.
Pollen Not available.
Air Quality Not available.
Flu Activity Not available.
METAR ZUCK 011500Z VRB01MPS 6000 NSC 25/22 Q1004 NOSIG

More Conditions Fewer Conditions

10-Day Weather Forecast

×

Almanac

ดาราศาสตร์

Jul. 01, 2015 Rise Set
Actual Time
Civil Twilight
Nautical Twilight
Astronomical Twilight
Moon
Length Of Visible Light
ความยาวของวัน
Tomorrow will be .
, % of the Moon is Illuminated

Today's Extremes

Country Highs Country Lows

Community

WunderPhotos

Upload Photos

1,834,224 photos uploaded!

WunderBlogs® & News

Nearby

Air Quality

  Air Quality AQ Index Pollutant
Not available.

Snow Depth

Station Depth Elevation

Earthquake Activity

City Distance Mag. Time & Date
Minimum magnitude displayed is 2.5.

Coastal Water Temperatures

สถานที่ อุณหภูมิ

Stations

Nearby Weather Stations

Station Location Temp ลมหนาว อุณหภูมิที่อากาศอาจจับตัวเป็นหยาดน้ำค้าง ความชื้น ลม Precip. Elev ปรับปรุงล่าสุด Type